createdAt,value
2023-01-25T00:00:00.863Z,-0.08
2023-01-25T00:02:28.595Z,-0.09
2023-01-25T00:05:00.637Z,-0.10
2023-01-25T00:07:27.944Z,-0.11
2023-01-25T00:09:54.988Z,-0.10
2023-01-25T00:12:22.097Z,-0.08
2023-01-25T00:14:49.168Z,-0.07
2023-01-25T00:17:16.245Z,-0.06
2023-01-25T00:19:43.411Z,-0.04
2023-01-25T00:22:10.723Z,-0.04
2023-01-25T00:24:37.876Z,-0.04
2023-01-25T00:27:04.967Z,-0.04
2023-01-25T00:29:31.990Z,-0.06
2023-01-25T00:31:59.539Z,-0.06
2023-01-25T00:34:27.487Z,-0.05
2023-01-25T00:36:54.555Z,-0.04
2023-01-25T00:39:21.737Z,-0.04
2023-01-25T00:41:48.911Z,-0.04
2023-01-25T00:44:16.122Z,-0.01
2023-01-25T00:46:45.800Z,-0.01
2023-01-25T00:49:20.080Z,0.01
2023-01-25T00:51:47.069Z,0.01
2023-01-25T00:54:14.292Z,0.00
2023-01-25T00:56:43.917Z,-0.02
2023-01-25T00:59:12.555Z,-0.01
2023-01-25T01:01:41.440Z,0.01
2023-01-25T01:04:33.828Z,0.05
2023-01-25T01:07:02.111Z,0.05
2023-01-25T01:09:32.148Z,0.05
2023-01-25T01:11:59.112Z,0.05
2023-01-25T01:14:26.110Z,0.05
2023-01-25T01:16:53.194Z,0.07
2023-01-25T01:19:20.161Z,0.07
2023-01-25T01:21:47.268Z,0.11
2023-01-25T01:24:18.123Z,0.12
2023-01-25T01:26:45.240Z,0.10
2023-01-25T01:29:12.393Z,0.08
2023-01-25T01:31:39.574Z,0.08
2023-01-25T01:34:15.343Z,0.08
2023-01-25T01:36:44.000Z,0.08
2023-01-25T01:39:11.241Z,0.06
2023-01-25T01:41:38.372Z,0.05
2023-01-25T01:44:06.611Z,0.05
2023-01-25T01:46:37.499Z,0.07
2023-01-25T01:49:19.979Z,0.06
2023-01-25T01:51:49.456Z,0.06
2023-01-25T01:54:27.708Z,0.08
2023-01-25T01:57:16.716Z,0.08
2023-01-25T01:59:50.088Z,0.08
2023-01-25T02:02:17.250Z,0.04
2023-01-25T02:04:47.038Z,0.05
2023-01-25T02:07:29.118Z,0.07
2023-01-25T02:09:59.303Z,0.08
2023-01-25T02:12:30.185Z,0.07
2023-01-25T02:14:57.201Z,0.04
2023-01-25T02:17:36.526Z,0.05
2023-01-25T02:20:26.315Z,0.06
2023-01-25T02:22:53.220Z,0.06
2023-01-25T02:25:20.250Z,0.05
2023-01-25T02:27:53.794Z,0.06
2023-01-25T02:30:21.058Z,0.05
2023-01-25T02:32:47.915Z,0.06
2023-01-25T02:35:22.133Z,0.07
2023-01-25T02:37:50.545Z,0.08
2023-01-25T02:40:18.331Z,0.12
2023-01-25T02:42:46.697Z,0.13
2023-01-25T02:45:16.403Z,0.14
2023-01-25T02:47:43.343Z,0.18
2023-01-25T02:50:10.667Z,0.21
2023-01-25T02:52:37.597Z,0.20
2023-01-25T02:55:04.834Z,0.18
2023-01-25T02:57:31.839Z,0.15
2023-01-25T03:00:00.136Z,0.13
2023-01-25T03:02:27.775Z,0.10
2023-01-25T03:04:54.886Z,0.06
2023-01-25T03:07:22.311Z,0.02
2023-01-25T03:09:49.929Z,-0.02
2023-01-25T03:12:16.819Z,-0.02
2023-01-25T03:14:45.064Z,-0.03
2023-01-25T03:17:12.281Z,-0.05
2023-01-25T03:19:39.440Z,-0.09
2023-01-25T03:22:07.518Z,-0.11
2023-01-25T03:24:34.389Z,-0.14
2023-01-25T03:27:14.484Z,-0.14
2023-01-25T03:30:01.414Z,-0.09
2023-01-25T03:32:32.116Z,-0.05
2023-01-25T03:35:04.954Z,-0.02
2023-01-25T03:37:33.784Z,0.04
2023-01-25T03:40:01.658Z,0.07
2023-01-25T03:42:30.453Z,0.10
2023-01-25T03:44:58.777Z,0.09
2023-01-25T03:47:26.191Z,0.07
2023-01-25T03:49:54.067Z,0.07
2023-01-25T03:52:21.119Z,0.07
2023-01-25T03:54:48.343Z,0.06
2023-01-25T03:57:15.277Z,0.02
2023-01-25T03:59:55.393Z,0.00
2023-01-25T04:02:48.152Z,0.00
2023-01-25T04:05:20.709Z,0.01
2023-01-25T04:07:51.630Z,0.02
2023-01-25T04:10:32.235Z,0.02
2023-01-25T04:13:00.656Z,0.03
2023-01-25T04:15:27.836Z,0.05
2023-01-25T04:17:57.647Z,0.03
2023-01-25T04:20:24.679Z,-0.02
2023-01-25T04:22:52.884Z,-0.10
2023-01-25T04:25:23.015Z,-0.18
2023-01-25T04:27:53.308Z,-0.22
2023-01-25T04:30:20.625Z,-0.26
2023-01-25T04:32:50.001Z,-0.26
2023-01-25T04:35:34.863Z,-0.27
2023-01-25T04:38:04.348Z,-0.29
2023-01-25T04:40:42.802Z,-0.31
2023-01-25T04:43:11.249Z,-0.33
2023-01-25T04:45:38.661Z,-0.38
2023-01-25T04:48:12.526Z,-0.41
2023-01-25T04:50:48.546Z,-0.44
2023-01-25T04:53:19.129Z,-0.44
2023-01-25T04:55:47.489Z,-0.44
2023-01-25T04:58:15.543Z,-0.43
2023-01-25T05:00:44.582Z,-0.46
2023-01-25T05:03:11.976Z,-0.50
2023-01-25T05:05:39.312Z,-0.53
2023-01-25T05:08:11.533Z,-0.54
2023-01-25T05:10:38.604Z,-0.55
2023-01-25T05:13:43.790Z,-0.56
2023-01-25T05:16:17.109Z,-0.55
2023-01-25T05:18:48.878Z,-0.51
2023-01-25T05:21:39.185Z,-0.48
2023-01-25T05:24:07.334Z,-0.49
2023-01-25T05:26:53.413Z,-0.50
2023-01-25T05:29:20.461Z,-0.51
2023-01-25T05:32:00.336Z,-0.48
2023-01-25T05:34:28.961Z,-0.46
2023-01-25T05:36:56.745Z,-0.43
2023-01-25T05:39:23.627Z,-0.45
2023-01-25T05:41:51.164Z,-0.46
2023-01-25T05:44:18.057Z,-0.48
2023-01-25T05:46:47.974Z,-0.48
2023-01-25T05:49:16.769Z,-0.46
2023-01-25T05:51:44.111Z,-0.46
2023-01-25T05:54:16.476Z,-0.43
2023-01-25T05:56:50.285Z,-0.40
2023-01-25T05:59:18.144Z,-0.34
2023-01-25T06:01:45.379Z,-0.28
2023-01-25T06:04:14.847Z,-0.27
2023-01-25T06:06:41.951Z,-0.27
2023-01-25T06:09:10.498Z,-0.28
2023-01-25T06:11:39.638Z,-0.26
2023-01-25T06:14:07.951Z,-0.25
2023-01-25T06:16:35.073Z,-0.27
2023-01-25T06:19:24.948Z,-0.27
2023-01-25T06:22:09.309Z,-0.26
2023-01-25T06:24:36.255Z,-0.23
2023-01-25T06:27:03.096Z,-0.25
2023-01-25T06:29:30.305Z,-0.26
2023-01-25T06:31:57.216Z,-0.24
2023-01-25T06:34:25.038Z,-0.23
2023-01-25T06:36:53.060Z,-0.24
2023-01-25T06:39:20.054Z,-0.28
2023-01-25T06:41:47.481Z,-0.34
2023-01-25T06:44:14.263Z,-0.34
2023-01-25T06:46:41.196Z,-0.36
2023-01-25T06:49:08.945Z,-0.38
2023-01-25T06:51:35.915Z,-0.41
2023-01-25T06:54:04.367Z,-0.47
2023-01-25T06:56:38.990Z,-0.52
2023-01-25T07:00:14.279Z,-0.50
2023-01-25T07:02:39.333Z,-0.47
2023-01-25T07:05:34.761Z,-0.44
2023-01-25T07:08:01.821Z,-0.41
2023-01-25T07:10:33.725Z,-0.40
2023-01-25T07:13:07.283Z,-0.40
2023-01-25T07:15:42.493Z,-0.38
2023-01-25T07:18:20.058Z,-0.39
2023-01-25T07:20:47.802Z,-0.40
2023-01-25T07:26:31.446Z,-0.35
2023-01-25T07:29:57.095Z,-0.36
2023-01-25T07:32:30.258Z,-0.40
2023-01-25T07:34:57.557Z,-0.40
2023-01-25T07:37:27.792Z,-0.41
2023-01-25T07:39:59.371Z,-0.37
2023-01-25T07:42:27.964Z,-0.29
2023-01-25T07:45:11.677Z,-0.21
2023-01-25T07:47:46.824Z,-0.16
2023-01-25T07:50:14.393Z,-0.08
2023-01-25T07:52:42.050Z,-0.02
2023-01-25T07:55:09.975Z,0.06
2023-01-25T07:57:37.501Z,0.10
2023-01-25T08:00:06.925Z,0.12
2023-01-25T08:02:39.553Z,0.14
2023-01-25T08:05:07.256Z,0.13
2023-01-25T08:07:34.378Z,0.11
2023-01-25T08:10:01.829Z,0.13
2023-01-25T08:12:30.803Z,0.17
2023-01-25T08:14:58.028Z,0.18
2023-01-25T08:17:37.192Z,0.19
2023-01-25T08:20:09.233Z,0.22
2023-01-25T08:22:39.305Z,0.23
2023-01-25T08:25:07.281Z,0.21
2023-01-25T08:27:37.261Z,0.21
2023-01-25T08:30:07.301Z,0.25
2023-01-25T08:32:38.257Z,0.25
2023-01-25T08:35:08.106Z,0.26
2023-01-25T08:37:46.477Z,0.29
2023-01-25T08:40:42.629Z,0.33
2023-01-25T08:43:30.380Z,0.38
2023-01-25T08:46:17.217Z,0.45
2023-01-25T08:48:44.504Z,0.52
2023-01-25T08:51:15.733Z,0.47
2023-01-25T08:53:44.120Z,0.40
2023-01-25T08:56:16.085Z,0.39
2023-01-25T08:58:47.423Z,0.34
2023-01-25T09:01:16.058Z,0.34
2023-01-25T09:03:44.664Z,0.32
2023-01-25T09:06:12.972Z,0.28
2023-01-25T09:08:42.433Z,0.24
2023-01-25T09:11:13.628Z,0.22
2023-01-25T09:13:44.691Z,0.23
2023-01-25T09:16:16.734Z,0.28
2023-01-25T09:18:50.662Z,0.34
2023-01-25T09:21:19.119Z,0.41
2023-01-25T09:24:04.550Z,0.45
2023-01-25T09:26:36.401Z,0.51
2023-01-25T09:29:03.570Z,0.55
2023-01-25T09:31:31.033Z,0.52
2023-01-25T09:34:17.033Z,0.52
2023-01-25T09:36:44.364Z,0.56
2023-01-25T09:39:14.439Z,0.59
2023-01-25T09:41:47.481Z,0.60
2023-01-25T09:45:07.536Z,0.64
2023-01-25T09:47:41.906Z,0.63
2023-01-25T09:50:32.210Z,0.57
2023-01-25T09:53:18.026Z,0.52
2023-01-25T09:55:54.171Z,0.51
2023-01-25T09:58:26.310Z,0.51
2023-01-25T10:00:59.826Z,0.52
2023-01-25T10:03:32.663Z,0.55
2023-01-25T10:06:01.922Z,0.56
2023-01-25T10:08:44.402Z,0.60
2023-01-25T10:11:23.982Z,0.60
2023-01-25T10:13:51.159Z,0.55
2023-01-25T10:16:25.939Z,0.53
2023-01-25T10:18:53.517Z,0.51
2023-01-25T10:21:30.058Z,0.48
2023-01-25T10:23:57.197Z,0.49
2023-01-25T10:26:29.458Z,0.49
2023-01-25T10:29:04.247Z,0.51
2023-01-25T10:31:31.481Z,0.52
2023-01-25T10:34:02.398Z,0.51
2023-01-25T10:36:31.529Z,0.44
2023-01-25T10:39:01.112Z,0.32
2023-01-25T10:41:35.009Z,0.27
2023-01-25T10:44:20.573Z,0.20
2023-01-25T10:47:05.692Z,0.18
2023-01-25T10:49:40.802Z,0.19
2023-01-25T10:52:18.726Z,0.20
2023-01-25T10:54:48.793Z,0.22
2023-01-25T10:57:20.312Z,0.28
2023-01-25T10:59:50.326Z,0.38
2023-01-25T11:02:39.295Z,0.41
2023-01-25T11:05:24.444Z,0.48
2023-01-25T11:07:51.417Z,0.60
2023-01-25T11:10:27.495Z,0.67
2023-01-25T11:13:13.182Z,0.69
2023-01-25T11:15:41.212Z,0.67
2023-01-25T11:18:13.110Z,0.64
2023-01-25T11:20:39.953Z,0.57
2023-01-25T11:23:21.474Z,0.52
2023-01-25T11:25:48.246Z,0.47
2023-01-25T11:28:20.972Z,0.44
2023-01-25T11:30:48.999Z,0.44
2023-01-25T11:33:17.106Z,0.44
2023-01-25T11:36:02.356Z,0.43
2023-01-25T11:38:29.649Z,0.46
2023-01-25T11:41:18.478Z,0.52
2023-01-25T11:43:45.430Z,0.58
2023-01-25T11:46:39.606Z,0.55
2023-01-25T11:49:08.505Z,0.50
2023-01-25T11:52:17.429Z,0.49
2023-01-25T11:55:42.144Z,0.49
2023-01-25T11:58:47.719Z,0.46
2023-01-25T12:01:31.697Z,0.45
2023-01-25T12:04:01.777Z,0.44
2023-01-25T12:06:35.877Z,0.47
2023-01-25T12:09:49.668Z,0.48
2023-01-25T12:12:42.989Z,0.48
2023-01-25T12:15:21.519Z,0.48
2023-01-25T12:18:07.167Z,0.47
2023-01-25T12:21:13.400Z,0.46
2023-01-25T12:24:01.967Z,0.43
2023-01-25T12:26:29.951Z,0.41
2023-01-25T12:28:56.988Z,0.41
2023-01-25T12:31:48.183Z,0.40
2023-01-25T12:34:26.795Z,0.39
2023-01-25T12:37:00.785Z,0.43
2023-01-25T12:40:05.024Z,0.41
2023-01-25T12:43:02.186Z,0.37
2023-01-25T13:14:21.660Z,0.32
2023-01-25T13:21:20.945Z,0.32
2023-01-25T13:28:19.173Z,0.22
2023-01-25T13:30:52.200Z,0.18
2023-01-25T13:33:42.977Z,0.11
2023-01-25T14:26:43.695Z,-0.23
2023-01-25T14:30:48.380Z,-0.24
2023-01-25T14:38:23.449Z,-0.24
2023-01-25T14:54:18.880Z,-0.45
2023-01-25T14:57:20.632Z,-0.51
2023-01-25T15:03:29.009Z,-0.51
2023-01-25T15:10:02.804Z,-0.45
2023-01-25T15:12:39.067Z,-0.46
2023-01-25T15:15:29.902Z,-0.48
2023-01-25T15:18:04.824Z,-0.49
2023-01-25T15:20:42.056Z,-0.50
2023-01-25T15:23:43.354Z,-0.49
2023-01-25T15:26:21.442Z,-0.44
2023-01-25T15:28:54.442Z,-0.42
2023-01-25T15:31:35.065Z,-0.42
2023-01-25T15:34:03.351Z,-0.42
2023-01-25T15:36:32.275Z,-0.44
2023-01-25T15:38:59.805Z,-0.45
2023-01-25T15:41:26.982Z,-0.47
2023-01-25T15:43:54.463Z,-0.46
2023-01-25T15:46:24.015Z,-0.46
2023-01-25T15:52:21.968Z,-0.47
2023-01-25T15:54:59.874Z,-0.50
2023-01-25T15:57:34.910Z,-0.51
2023-01-25T16:00:02.910Z,-0.54
2023-01-25T16:02:31.997Z,-0.58
2023-01-25T16:04:59.413Z,-0.58
2023-01-25T16:07:30.734Z,-0.59
2023-01-25T16:10:00.111Z,-0.58
2023-01-25T16:12:27.603Z,-0.61
2023-01-25T16:15:47.912Z,-0.61
2023-01-25T16:18:15.886Z,-0.57
2023-01-25T16:20:44.082Z,-0.59
2023-01-25T16:23:16.927Z,-0.60
2023-01-25T16:26:15.498Z,-0.60
2023-01-25T16:28:44.007Z,-0.61
2023-01-25T16:31:29.871Z,-0.59
2023-01-25T16:34:02.390Z,-0.58
2023-01-25T16:36:41.676Z,-0.57
2023-01-25T16:39:19.884Z,-0.57
2023-01-25T16:42:09.510Z,-0.57
2023-01-25T16:44:39.401Z,-0.56
2023-01-25T16:51:01.070Z,-0.57
2023-01-25T16:53:43.273Z,-0.60
2023-01-25T16:56:50.922Z,-0.60
2023-01-25T17:00:05.755Z,-0.63
2023-01-25T17:03:24.853Z,-0.62
2023-01-25T17:09:43.675Z,-0.71
2023-01-25T17:12:54.088Z,-0.72
2023-01-25T17:15:43.132Z,-0.72
2023-01-25T17:18:10.871Z,-0.71
2023-01-25T17:20:39.791Z,-0.74
2023-01-25T17:23:07.451Z,-0.76
2023-01-25T17:25:40.800Z,-0.78
2023-01-25T17:28:23.413Z,-0.77
2023-01-25T17:30:54.580Z,-0.81
2023-01-25T17:33:22.472Z,-0.83
2023-01-25T17:36:05.758Z,-0.86
2023-01-25T17:39:16.327Z,-0.89
2023-01-25T17:41:51.047Z,-0.85
2023-01-25T17:44:22.108Z,-0.85
2023-01-25T17:46:58.303Z,-0.93
2023-01-25T17:50:06.380Z,-0.89
2023-01-25T17:55:39.171Z,-0.95
2023-01-25T17:58:06.251Z,-0.96
2023-01-25T18:00:33.918Z,-0.96
2023-01-25T18:08:43.035Z,-1.09
2023-01-25T18:11:11.476Z,-1.10
2023-01-25T18:13:40.132Z,-1.13
2023-01-25T18:16:08.581Z,-1.18
2023-01-25T18:18:36.872Z,-1.21
2023-01-25T18:21:28.703Z,-1.26
2023-01-25T18:23:56.910Z,-1.33
2023-01-25T18:26:24.091Z,-1.35
2023-01-25T18:28:58.185Z,-1.35
2023-01-25T18:31:26.015Z,-1.35
2023-01-25T18:34:13.662Z,-1.37
2023-01-25T18:41:27.780Z,-1.35
2023-01-25T18:44:36.549Z,-1.35
2023-01-25T18:47:21.323Z,-1.34
2023-01-25T18:50:36.547Z,-1.38
2023-01-25T18:53:23.019Z,-1.41
2023-01-25T18:59:09.034Z,-1.48
2023-01-25T19:01:38.552Z,-1.52
2023-01-25T19:05:30.528Z,-1.57
2023-01-25T19:16:56.716Z,-1.71
2023-01-25T19:20:27.662Z,-1.71
2023-01-25T19:31:13.427Z,-1.64
2023-01-25T19:34:30.774Z,-1.62
2023-01-25T19:50:09.169Z,-1.63
2023-01-25T20:36:03.217Z,-1.79
2023-01-25T21:08:48.128Z,-1.95
2023-01-25T22:24:42.135Z,-2.30
2023-01-25T22:27:25.640Z,-2.34
